createdAt,value
2023-03-30T00:01:22.201Z,80.41
2023-03-30T00:03:51.045Z,81.30
2023-03-30T00:06:22.804Z,80.95
2023-03-30T00:08:58.656Z,81.09
2023-03-30T00:11:28.665Z,81.29
2023-03-30T00:13:57.455Z,80.96
2023-03-30T00:16:26.351Z,80.92
2023-03-30T00:18:55.731Z,81.33
2023-03-30T00:21:24.785Z,81.51
2023-03-30T00:23:54.830Z,81.28
2023-03-30T00:26:23.661Z,81.59
2023-03-30T00:28:52.436Z,81.66
2023-03-30T00:31:21.168Z,81.67
2023-03-30T00:33:51.839Z,82.09
2023-03-30T00:36:22.524Z,82.15
2023-03-30T00:38:51.273Z,82.25
2023-03-30T00:41:21.694Z,81.95
2023-03-30T00:43:59.093Z,82.55
2023-03-30T00:46:28.078Z,82.70
2023-03-30T00:49:00.150Z,82.93
2023-03-30T00:51:29.927Z,83.04
2023-03-30T00:54:07.652Z,83.97
2023-03-30T00:56:37.776Z,84.20
2023-03-30T00:59:07.480Z,83.38
2023-03-30T01:01:39.344Z,83.47
2023-03-30T01:04:11.262Z,83.34
2023-03-30T01:06:43.604Z,83.16
2023-03-30T01:09:13.164Z,83.18
2023-03-30T01:11:44.989Z,83.05
2023-03-30T01:14:16.789Z,83.24
2023-03-30T01:16:57.941Z,82.99
2023-03-30T01:20:22.529Z,83.45
2023-03-30T01:23:27.704Z,82.91
2023-03-30T01:26:32.976Z,83.19
2023-03-30T01:29:12.618Z,83.82
2023-03-30T01:32:32.584Z,84.18
2023-03-30T01:35:28.179Z,84.43
2023-03-30T01:38:58.699Z,83.40
2023-03-30T01:41:38.248Z,84.19
2023-03-30T01:44:19.645Z,85.13
2023-03-30T01:46:57.362Z,85.06
2023-03-30T01:49:33.025Z,84.97
2023-03-30T01:52:09.901Z,84.71
2023-03-30T01:54:47.294Z,84.60
2023-03-30T01:57:22.577Z,84.97
2023-03-30T01:59:58.134Z,86.01
2023-03-30T02:02:32.862Z,85.95
2023-03-30T02:05:07.385Z,85.52
2023-03-30T02:07:39.783Z,85.30
2023-03-30T02:10:13.390Z,86.22
2023-03-30T02:12:45.806Z,85.79
2023-03-30T02:15:19.037Z,85.86
2023-03-30T02:17:48.560Z,85.56
2023-03-30T02:20:19.070Z,85.38
2023-03-30T02:22:49.531Z,86.57
2023-03-30T02:25:19.333Z,86.21
2023-03-30T02:27:50.154Z,85.52
2023-03-30T02:30:19.475Z,86.48
2023-03-30T02:32:53.411Z,85.68
2023-03-30T02:36:04.945Z,85.54
2023-03-30T02:39:05.110Z,85.35
2023-03-30T02:42:16.761Z,85.03
2023-03-30T02:45:01.146Z,86.43
2023-03-30T02:47:42.866Z,85.50
2023-03-30T03:54:24.878Z,86.39
2023-03-30T03:56:54.702Z,87.49
2023-03-30T03:59:24.029Z,86.84
2023-03-30T04:01:53.395Z,86.44
2023-03-30T04:04:22.276Z,86.15
2023-03-30T04:06:51.556Z,86.43
2023-03-30T04:09:21.640Z,86.86
2023-03-30T04:12:14.939Z,86.29
2023-03-30T04:15:07.893Z,86.05
2023-03-30T04:18:02.910Z,85.92
2023-03-30T04:20:52.655Z,85.87
2023-03-30T04:23:48.665Z,85.52
2023-03-30T04:26:20.182Z,85.65
2023-03-30T04:29:06.838Z,85.48
2023-03-30T04:31:54.220Z,85.92
2023-03-30T04:34:42.714Z,86.11
2023-03-30T04:37:30.202Z,85.37
2023-03-30T04:40:17.430Z,85.83
2023-03-30T04:43:10.387Z,85.88
2023-03-30T04:45:52.752Z,86.18
2023-03-30T04:48:37.912Z,85.97
2023-03-30T04:51:25.195Z,85.82
2023-03-30T04:54:33.308Z,85.41
2023-03-30T04:57:02.438Z,86.53
2023-03-30T04:59:49.276Z,85.89
2023-03-30T05:02:48.249Z,86.28
2023-03-30T05:05:45.885Z,86.50
2023-03-30T05:08:39.922Z,86.71
2023-03-30T05:11:13.192Z,86.44
2023-03-30T05:14:00.403Z,86.42
2023-03-30T05:16:55.374Z,87.25
2023-03-30T05:19:36.889Z,87.34
2023-03-30T05:22:17.060Z,87.43
2023-03-30T05:25:24.509Z,87.99
2023-03-30T05:28:03.364Z,88.00
2023-03-30T05:30:55.143Z,87.90
2023-03-30T05:33:43.948Z,88.09
2023-03-30T05:36:40.864Z,87.86
2023-03-30T05:39:48.209Z,88.36
2023-03-30T05:42:24.092Z,88.43
2023-03-30T05:45:11.454Z,88.72
2023-03-30T05:48:15.370Z,89.17
2023-03-30T05:50:49.704Z,88.98
2023-03-30T05:53:30.489Z,89.06
2023-03-30T05:56:07.277Z,89.20
2023-03-30T05:58:54.620Z,89.58
2023-03-30T06:01:54.321Z,89.22
2023-03-30T06:04:23.139Z,88.79
2023-03-30T06:06:51.970Z,89.39
2023-03-30T06:09:24.128Z,88.95
2023-03-30T06:11:53.440Z,89.12
2023-03-30T06:14:25.807Z,88.75
2023-03-30T06:17:17.544Z,88.96
2023-03-30T06:19:46.414Z,88.90
2023-03-30T06:22:15.564Z,88.75
2023-03-30T06:24:50.614Z,88.81
2023-03-30T06:27:19.419Z,89.26
2023-03-30T06:29:48.696Z,89.07
2023-03-30T06:32:17.736Z,89.31
2023-03-30T06:34:55.512Z,88.89
2023-03-30T06:37:27.097Z,88.85
2023-03-30T06:39:57.345Z,88.45
2023-03-30T06:42:28.662Z,88.22
2023-03-30T06:45:14.354Z,87.97
2023-03-30T06:47:43.924Z,87.30
2023-03-30T06:50:13.552Z,87.56
2023-03-30T06:53:00.963Z,87.09
2023-03-30T06:55:36.983Z,87.03
2023-03-30T06:58:05.850Z,87.31
2023-03-30T07:00:35.014Z,87.32
2023-03-30T07:03:22.591Z,86.53
2023-03-30T07:06:10.923Z,86.48
2023-03-30T07:08:41.605Z,84.81
2023-03-30T07:11:15.001Z,86.26
2023-03-30T07:13:43.687Z,85.81
2023-03-30T07:16:12.520Z,85.64
2023-03-30T07:18:41.231Z,86.03
2023-03-30T07:21:09.892Z,85.89
2023-03-30T07:23:43.418Z,85.04
2023-03-30T07:26:19.587Z,84.74
2023-03-30T07:28:56.523Z,82.68
2023-03-30T07:31:27.397Z,83.55
2023-03-30T07:33:56.957Z,83.22
2023-03-30T07:36:28.732Z,80.97
2023-03-30T07:38:58.550Z,81.90
2023-03-30T07:41:29.064Z,81.52
2023-03-30T07:44:00.824Z,80.82
2023-03-30T07:46:30.099Z,80.20
2023-03-30T07:48:58.858Z,79.99
2023-03-30T07:51:29.620Z,79.97
2023-03-30T07:54:05.383Z,79.24
2023-03-30T07:56:52.657Z,79.51
2023-03-30T07:59:23.809Z,79.00
2023-03-30T08:01:55.278Z,79.18
2023-03-30T08:04:46.856Z,78.60
2023-03-30T08:07:18.947Z,78.13
2023-03-30T08:09:49.780Z,77.37
2023-03-30T08:12:19.864Z,76.94
2023-03-30T08:14:48.509Z,75.32
2023-03-30T08:17:17.211Z,73.96
2023-03-30T08:19:46.172Z,74.23
2023-03-30T08:22:14.899Z,74.17
2023-03-30T08:24:43.593Z,73.43
2023-03-30T08:27:12.436Z,72.49
2023-03-30T08:29:42.558Z,73.50
2023-03-30T08:32:11.182Z,73.25
2023-03-30T08:34:40.055Z,72.21
2023-03-30T08:37:08.778Z,71.54
2023-03-30T08:39:37.652Z,70.95
2023-03-30T08:42:40.788Z,68.66
2023-03-30T08:45:14.776Z,69.32
2023-03-30T08:47:49.993Z,68.75
2023-03-30T08:50:31.281Z,68.58
2023-03-30T08:53:00.461Z,68.62
2023-03-30T08:55:43.974Z,69.42
2023-03-30T08:58:28.310Z,69.26
2023-03-30T09:01:11.290Z,69.37
2023-03-30T09:03:50.677Z,69.90
2023-03-30T09:06:32.259Z,69.61
2023-03-30T09:09:01.537Z,70.38
2023-03-30T09:11:37.582Z,71.06
2023-03-30T09:14:13.791Z,71.40
2023-03-30T09:16:52.996Z,72.18
2023-03-30T09:19:32.035Z,72.54
2023-03-30T09:22:06.976Z,73.20
2023-03-30T09:24:36.469Z,72.79
2023-03-30T09:27:17.264Z,73.49
2023-03-30T09:29:51.638Z,74.00
2023-03-30T09:32:32.500Z,76.26
2023-03-30T09:35:09.215Z,77.17
2023-03-30T09:37:38.300Z,78.15
2023-03-30T09:40:32.514Z,80.22
2023-03-30T09:43:16.209Z,80.47
2023-03-30T09:45:53.311Z,80.97
2023-03-30T09:48:23.641Z,82.73
2023-03-30T09:50:52.905Z,84.20
2023-03-30T09:53:29.387Z,84.40
2023-03-30T09:56:10.203Z,86.57
2023-03-30T09:58:39.750Z,87.08
2023-03-30T10:01:12.554Z,86.66
2023-03-30T10:03:45.933Z,87.00
2023-03-30T10:06:21.732Z,87.63
2023-03-30T10:08:55.108Z,87.60
2023-03-30T10:11:38.068Z,88.29
2023-03-30T10:14:07.962Z,87.73
2023-03-30T10:16:37.259Z,88.33
2023-03-30T10:19:20.257Z,88.36
2023-03-30T10:21:49.381Z,88.14
2023-03-30T10:24:26.016Z,87.31
2023-03-30T10:26:58.409Z,87.07
2023-03-30T10:29:31.285Z,87.29
2023-03-30T10:32:04.537Z,87.55
2023-03-30T10:34:53.440Z,88.14
2023-03-30T10:37:32.044Z,88.08
2023-03-30T10:40:05.225Z,87.79
2023-03-30T10:42:34.923Z,87.06
2023-03-30T10:45:07.086Z,87.06
2023-03-30T10:48:04.554Z,86.90
2023-03-30T10:50:47.068Z,86.77
2023-03-30T10:53:37.320Z,86.26
2023-03-30T10:56:22.869Z,86.90
2023-03-30T10:59:59.286Z,86.22
2023-03-30T11:02:53.217Z,85.31
2023-03-30T11:05:31.018Z,85.16
2023-03-30T11:08:07.627Z,84.72
2023-03-30T11:10:44.095Z,86.47
2023-03-30T11:13:20.265Z,84.55
2023-03-30T11:15:54.066Z,83.13
2023-03-30T11:18:30.629Z,83.44
2023-03-30T11:21:05.754Z,82.38
2023-03-30T11:23:46.899Z,79.29
2023-03-30T11:26:22.471Z,80.07
2023-03-30T11:29:02.025Z,78.64
2023-03-30T11:31:49.896Z,78.57
2023-03-30T11:34:31.302Z,77.89
2023-03-30T11:37:13.526Z,78.32
2023-03-30T11:42:39.751Z,76.96
2023-03-30T11:45:33.611Z,74.41
2023-03-30T11:48:23.390Z,72.78
2023-03-30T11:51:13.365Z,73.78
2023-03-30T11:53:54.755Z,71.94
2023-03-30T11:56:38.821Z,70.60
2023-03-30T11:59:23.753Z,68.80
2023-03-30T12:02:09.852Z,67.22
2023-03-30T12:04:47.571Z,62.23
2023-03-30T12:07:33.105Z,61.46
2023-03-30T12:10:08.353Z,62.59
2023-03-30T12:12:40.376Z,63.41
2023-03-30T12:15:43.800Z,65.88
2023-03-30T12:18:27.939Z,63.28
2023-03-30T12:21:13.132Z,63.18
2023-03-30T12:23:51.694Z,61.59
2023-03-30T12:26:28.227Z,60.46
2023-03-30T12:32:07.552Z,56.14
2023-03-30T12:34:41.746Z,54.86
2023-03-30T12:37:18.277Z,57.28
2023-03-30T12:39:50.852Z,56.25
2023-03-30T12:42:28.022Z,56.57
2023-03-30T12:45:26.986Z,55.48
2023-03-30T12:48:26.356Z,55.11
2023-03-30T12:51:16.469Z,53.97
2023-03-30T12:54:32.091Z,53.62
2023-03-30T12:57:19.447Z,53.59
2023-03-30T13:00:52.911Z,55.02
2023-03-30T13:03:53.067Z,52.73
2023-03-30T13:06:32.109Z,55.23
2023-03-30T13:09:34.058Z,52.31
2023-03-30T13:12:43.981Z,51.77
2023-03-30T13:15:43.258Z,51.10
2023-03-30T13:18:56.981Z,50.24
2023-03-30T13:21:27.188Z,49.93
2023-03-30T13:24:22.475Z,50.13
2023-03-30T13:26:54.128Z,52.12
2023-03-30T13:29:31.605Z,53.96
2023-03-30T13:32:25.581Z,55.11
2023-03-30T13:35:13.437Z,56.67
2023-03-30T13:38:16.935Z,56.94
2023-03-30T13:41:04.713Z,58.01
2023-03-30T13:44:00.790Z,58.16
2023-03-30T13:46:41.986Z,58.10
2023-03-30T13:49:34.090Z,57.19
2023-03-30T13:52:12.462Z,58.25
2023-03-30T13:54:44.362Z,55.79
2023-03-30T13:57:20.259Z,55.82
2023-03-30T13:59:55.986Z,54.26
2023-03-30T14:02:30.735Z,50.98
2023-03-30T14:05:20.663Z,48.20
2023-03-30T14:07:55.234Z,48.49
2023-03-30T14:10:24.541Z,47.19
2023-03-30T14:12:56.906Z,43.70
2023-03-30T14:15:34.210Z,43.21
2023-03-30T14:18:05.284Z,43.28
2023-03-30T14:20:54.593Z,42.50
2023-03-30T14:23:35.367Z,45.19
2023-03-30T14:26:07.918Z,45.61
2023-03-30T14:28:38.728Z,45.08
2023-03-30T14:31:15.906Z,45.63
2023-03-30T14:33:45.850Z,45.65
2023-03-30T14:36:18.362Z,44.61
2023-03-30T14:38:51.552Z,45.25
2023-03-30T14:41:27.795Z,46.97
2023-03-30T14:44:00.058Z,47.36
2023-03-30T14:46:42.533Z,48.09
2023-03-30T14:49:20.336Z,50.42
2023-03-30T14:51:52.023Z,51.61
2023-03-30T14:54:25.944Z,52.19
2023-03-30T14:57:00.708Z,52.11
2023-03-30T14:59:32.564Z,50.79
2023-03-30T15:02:03.292Z,50.87
2023-03-30T15:04:38.637Z,52.11
2023-03-30T15:07:07.847Z,52.82
2023-03-30T15:09:40.195Z,53.59
2023-03-30T15:12:09.610Z,58.35
2023-03-30T15:14:41.762Z,56.80
2023-03-30T15:17:17.117Z,57.12
2023-03-30T15:19:48.687Z,57.03
2023-03-30T15:22:30.401Z,59.17
2023-03-30T15:25:06.946Z,59.84
2023-03-30T15:27:39.968Z,59.10
2023-03-30T15:30:25.979Z,58.92
2023-03-30T15:32:57.776Z,57.78
2023-03-30T15:35:32.009Z,58.11
2023-03-30T15:38:03.946Z,60.39
2023-03-30T15:40:40.539Z,60.46
2023-03-30T15:43:25.265Z,62.00
2023-03-30T15:45:57.241Z,59.15
2023-03-30T15:48:32.152Z,56.26
2023-03-30T15:51:09.474Z,62.06
2023-03-30T15:53:44.811Z,68.38
2023-03-30T15:56:23.984Z,70.24
2023-03-30T15:58:53.525Z,74.01
2023-03-30T16:01:25.757Z,78.60
2023-03-30T16:04:01.407Z,77.18
2023-03-30T16:06:31.822Z,78.48
2023-03-30T16:09:00.896Z,80.84
2023-03-30T16:11:31.463Z,81.88
2023-03-30T16:14:01.326Z,80.76
2023-03-30T16:16:30.175Z,82.18
2023-03-30T16:18:59.060Z,83.88
2023-03-30T16:21:28.028Z,83.59
2023-03-30T16:24:06.297Z,84.09
2023-03-30T16:26:37.333Z,83.73
2023-03-30T16:29:06.349Z,84.01
2023-03-30T16:31:36.508Z,84.92
2023-03-30T16:34:06.020Z,84.87
2023-03-30T16:36:34.852Z,83.18
2023-03-30T16:39:05.612Z,83.05
2023-03-30T16:41:35.961Z,84.13
2023-03-30T16:44:06.297Z,82.77
2023-03-30T16:46:35.153Z,82.72
2023-03-30T16:49:05.650Z,82.77
2023-03-30T16:51:34.566Z,82.76
2023-03-30T16:54:04.360Z,81.68
2023-03-30T16:56:33.143Z,81.74
2023-03-30T16:59:05.657Z,80.82
2023-03-30T17:01:35.467Z,80.60
2023-03-30T17:04:09.644Z,80.17
2023-03-30T17:06:38.451Z,79.91
2023-03-30T17:09:10.790Z,80.17
2023-03-30T17:11:39.855Z,77.65
2023-03-30T17:14:10.150Z,78.25
2023-03-30T17:16:39.386Z,78.36
2023-03-30T17:19:23.664Z,77.49
2023-03-30T17:22:01.440Z,77.50
2023-03-30T17:24:42.463Z,76.86
2023-03-30T17:27:15.910Z,77.17
2023-03-30T17:29:48.396Z,77.00
2023-03-30T17:32:17.879Z,76.94
2023-03-30T17:34:53.562Z,77.00
2023-03-30T17:37:29.212Z,77.67
2023-03-30T17:39:59.763Z,77.58
2023-03-30T17:42:39.421Z,77.14
2023-03-30T17:45:12.099Z,76.61
2023-03-30T17:47:42.211Z,76.81
2023-03-30T17:50:23.732Z,76.25
2023-03-30T17:52:53.887Z,75.97
2023-03-30T17:55:31.777Z,75.50
2023-03-30T17:58:01.606Z,75.55
2023-03-30T18:00:35.002Z,74.97
2023-03-30T18:03:05.124Z,75.06
2023-03-30T18:05:34.676Z,75.20
2023-03-30T18:08:03.465Z,74.95
2023-03-30T18:10:38.334Z,74.95
2023-03-30T18:13:07.951Z,75.07
2023-03-30T18:15:39.307Z,75.29
2023-03-30T18:18:08.355Z,75.58
2023-03-30T18:21:12.041Z,75.22
2023-03-30T18:23:40.856Z,75.31
2023-03-30T18:26:21.613Z,75.06
2023-03-30T18:29:02.148Z,74.75
2023-03-30T18:31:32.543Z,75.65
2023-03-30T18:34:01.494Z,75.70
2023-03-30T18:36:30.476Z,75.59
2023-03-30T18:38:59.104Z,75.78
2023-03-30T18:41:27.976Z,76.14
2023-03-30T18:43:56.624Z,76.09
2023-03-30T18:46:25.404Z,75.76
2023-03-30T18:48:55.580Z,75.52
2023-03-30T18:51:24.766Z,77.24
2023-03-30T18:53:53.559Z,76.74
2023-03-30T18:56:22.929Z,76.64
2023-03-30T18:58:51.589Z,76.56
2023-03-30T19:01:20.558Z,76.68
2023-03-30T19:03:51.718Z,76.84
2023-03-30T19:06:23.991Z,77.03
2023-03-30T19:08:53.097Z,77.09
2023-03-30T19:11:27.400Z,76.37
2023-03-30T19:14:01.080Z,76.61
2023-03-30T19:16:33.168Z,76.88
2023-03-30T19:19:03.135Z,76.75
2023-03-30T19:21:33.306Z,77.16
2023-03-30T19:24:02.611Z,76.65
2023-03-30T19:26:31.809Z,76.72
2023-03-30T19:29:00.715Z,77.60
2023-03-30T19:31:29.450Z,77.73
2023-03-30T19:33:58.363Z,77.44
2023-03-30T19:36:27.139Z,77.92
2023-03-30T19:39:00.317Z,77.54
2023-03-30T19:41:29.596Z,77.73
2023-03-30T19:43:58.679Z,77.90
2023-03-30T19:46:27.606Z,77.46
2023-03-30T19:48:57.915Z,78.23
2023-03-30T19:51:26.974Z,78.28
2023-03-30T19:53:57.805Z,77.78
2023-03-30T19:56:26.800Z,77.33
2023-03-30T19:58:55.676Z,78.34
2023-03-30T20:01:25.517Z,78.42
2023-03-30T20:03:55.486Z,78.15
2023-03-30T20:06:24.221Z,78.19
2023-03-30T20:08:54.213Z,78.16
2023-03-30T20:11:25.250Z,78.94
2023-03-30T20:13:54.087Z,79.33
2023-03-30T20:16:26.056Z,79.13
2023-03-30T20:18:57.453Z,78.57
2023-03-30T20:21:27.973Z,78.82
2023-03-30T20:23:59.006Z,79.92
2023-03-30T20:26:30.609Z,80.06
2023-03-30T20:29:00.881Z,79.24
2023-03-30T20:31:30.476Z,79.28
2023-03-30T20:33:59.828Z,78.68
2023-03-30T20:36:29.777Z,78.05
2023-03-30T20:38:59.671Z,79.37
2023-03-30T20:41:37.948Z,79.80
2023-03-30T20:44:11.360Z,79.41
2023-03-30T20:46:43.498Z,79.73
2023-03-30T20:49:14.027Z,79.55
2023-03-30T20:54:38.218Z,79.27
2023-03-30T20:57:08.568Z,79.80
2023-03-30T20:59:37.617Z,79.21
2023-03-30T21:02:06.673Z,78.86
2023-03-30T21:04:36.632Z,79.25
2023-03-30T21:07:05.408Z,79.89
2023-03-30T21:09:34.926Z,79.95
2023-03-30T21:12:03.899Z,79.18
2023-03-30T21:14:34.165Z,79.77
2023-03-30T21:17:02.954Z,79.56
2023-03-30T21:19:31.672Z,79.75
2023-03-30T21:22:19.208Z,80.45
2023-03-30T21:24:47.917Z,80.17
2023-03-30T21:27:16.687Z,80.41
2023-03-30T21:29:47.180Z,80.94
2023-03-30T21:32:16.061Z,81.17
2023-03-30T21:34:44.773Z,82.17
2023-03-30T21:37:13.544Z,81.09
2023-03-30T21:39:44.166Z,80.94
2023-03-30T21:42:12.896Z,80.57
2023-03-30T21:44:41.578Z,80.86
2023-03-30T21:47:15.087Z,81.60
2023-03-30T21:49:44.105Z,81.60
2023-03-30T21:52:13.087Z,82.24
2023-03-30T21:54:41.867Z,82.13
2023-03-30T21:57:10.740Z,82.62
2023-03-30T21:59:39.488Z,82.23
2023-03-30T22:02:08.427Z,82.30
2023-03-30T22:04:38.831Z,82.67
2023-03-30T22:07:07.590Z,82.99
2023-03-30T22:09:36.344Z,82.96
2023-03-30T22:12:05.718Z,83.35
2023-03-30T22:14:34.786Z,83.65
2023-03-30T22:17:11.403Z,83.36
2023-03-30T22:19:44.030Z,83.49
2023-03-30T22:22:12.741Z,83.75
2023-03-30T22:24:41.492Z,83.52
2023-03-30T22:27:11.495Z,83.97
2023-03-30T22:31:18.335Z,84.31
2023-03-30T22:33:48.060Z,83.73
2023-03-30T22:36:21.884Z,83.74
2023-03-30T22:38:52.771Z,83.78
2023-03-30T22:41:24.353Z,83.60
2023-03-30T22:43:55.109Z,83.43
2023-03-30T22:46:33.102Z,84.07
2023-03-30T22:49:02.545Z,83.59
2023-03-30T22:51:34.038Z,83.63
2023-03-30T22:54:02.855Z,84.38
2023-03-30T22:56:32.547Z,83.57
2023-03-30T22:59:01.923Z,83.80
2023-03-30T23:01:48.026Z,83.84
2023-03-30T23:04:17.148Z,83.94
2023-03-30T23:06:48.042Z,84.08
2023-03-30T23:09:16.835Z,84.45
2023-03-30T23:11:46.065Z,84.34
2023-03-30T23:14:15.502Z,84.94
2023-03-30T23:16:46.268Z,84.31
2023-03-30T23:19:15.048Z,84.23
2023-03-30T23:21:44.724Z,84.46
2023-03-30T23:24:55.667Z,85.01
2023-03-30T23:27:24.728Z,86.50
2023-03-30T23:29:53.482Z,85.97
2023-03-30T23:32:22.314Z,85.87
2023-03-30T23:34:51.129Z,85.60
2023-03-30T23:37:21.990Z,85.51
2023-03-30T23:39:50.912Z,85.22
2023-03-30T23:42:21.262Z,85.39
2023-03-30T23:44:49.966Z,85.46
2023-03-30T23:47:18.845Z,86.30
2023-03-30T23:49:47.708Z,86.05
2023-03-30T23:52:16.554Z,86.10
2023-03-30T23:54:45.300Z,86.27
2023-03-30T23:57:14.123Z,86.32
2023-03-30T23:59:44.280Z,86.93
